createdAt,value
2023-10-07T00:04:34.438Z,26.67
2023-10-07T00:09:38.382Z,26.30
2023-10-07T00:14:40.328Z,23.05
2023-10-07T00:19:42.044Z,26.65
2023-10-07T00:24:45.331Z,24.25
2023-10-07T00:29:47.157Z,24.80
2023-10-07T00:34:49.020Z,24.35
2023-10-07T00:39:52.633Z,23.33
2023-10-07T00:44:54.366Z,24.65
2023-10-07T00:49:56.633Z,22.13
2023-10-07T00:55:00.899Z,23.17
2023-10-07T01:00:04.847Z,24.80
2023-10-07T01:05:07.181Z,24.08
2023-10-07T01:10:11.004Z,24.17
2023-10-07T01:15:13.262Z,24.67
2023-10-07T01:20:15.221Z,22.95
2023-10-07T01:25:18.357Z,23.73
2023-10-07T01:30:20.162Z,24.45
2023-10-07T01:35:21.941Z,25.02
2023-10-07T01:40:24.989Z,23.30
2023-10-07T01:45:26.921Z,23.25
2023-10-07T01:50:28.782Z,22.98
2023-10-07T01:55:36.163Z,24.23
2023-10-07T02:00:38.052Z,24.95
2023-10-07T02:05:40.507Z,21.95
2023-10-07T02:10:43.726Z,24.45
2023-10-07T02:15:46.124Z,25.50
2023-10-07T02:20:49.348Z,24.92
2023-10-07T02:25:52.611Z,27.90
2023-10-07T02:30:54.498Z,24.95
2023-10-07T02:35:58.255Z,26.33
2023-10-07T02:41:01.567Z,28.23
2023-10-07T02:46:04.169Z,24.65
2023-10-07T02:51:05.951Z,27.05
2023-10-07T02:56:09.163Z,24.67
2023-10-07T03:01:11.001Z,24.87
2023-10-07T03:06:12.800Z,25.42
2023-10-07T03:11:16.005Z,27.55
2023-10-07T03:16:19.111Z,29.58
2023-10-07T03:21:20.934Z,28.40
2023-10-07T03:26:24.059Z,27.35
2023-10-07T03:31:25.857Z,27.58
2023-10-07T03:36:27.650Z,27.45
2023-10-07T03:41:30.844Z,26.92
2023-10-07T03:46:32.649Z,27.90
2023-10-07T03:51:34.573Z,24.87
2023-10-07T03:56:37.812Z,27.67
2023-10-07T04:01:39.640Z,26.12
2023-10-07T04:06:41.685Z,25.85
2023-10-07T04:11:45.175Z,29.95
2023-10-07T04:16:49.756Z,26.00
2023-10-07T04:21:51.521Z,25.85
2023-10-07T04:26:58.605Z,29.20
2023-10-07T04:32:01.688Z,26.45
2023-10-07T04:37:03.558Z,26.35
2023-10-07T04:42:07.125Z,23.15
2023-10-07T04:47:09.086Z,23.30
2023-10-07T04:52:10.919Z,24.23
2023-10-07T04:57:13.992Z,23.98
2023-10-07T05:02:15.956Z,26.77
2023-10-07T05:07:18.316Z,23.52
2023-10-07T05:12:21.485Z,25.55
2023-10-07T05:17:23.389Z,22.60
2023-10-07T05:22:25.166Z,23.15
2023-10-07T05:27:28.249Z,24.30
2023-10-07T05:32:30.054Z,24.60
2023-10-07T05:37:31.914Z,25.15
2023-10-07T05:42:35.134Z,22.65
2023-10-07T05:47:37.066Z,27.80
2023-10-07T05:52:38.996Z,23.87
2023-10-07T05:57:42.141Z,25.05
2023-10-07T06:02:44.072Z,23.55
2023-10-07T06:07:46.025Z,24.12
2023-10-07T06:12:49.292Z,24.87
2023-10-07T06:17:51.196Z,25.37
2023-10-07T06:22:53.228Z,26.35
2023-10-07T06:27:56.476Z,25.52
2023-10-07T06:32:58.215Z,24.67
2023-10-07T06:38:00.054Z,24.83
2023-10-07T06:43:03.430Z,24.87
2023-10-07T06:48:06.675Z,27.65
2023-10-07T06:53:08.639Z,25.55
2023-10-07T06:58:14.284Z,24.10
2023-10-07T07:03:16.461Z,27.40
2023-10-07T07:08:18.429Z,26.55
2023-10-07T07:13:21.582Z,23.55
2023-10-07T07:18:23.365Z,22.98
2023-10-07T07:23:25.181Z,24.23
2023-10-07T07:28:28.312Z,24.40
2023-10-07T07:33:30.184Z,23.65
2023-10-07T07:38:32.173Z,24.37
2023-10-07T07:43:36.765Z,26.67
2023-10-07T07:48:38.786Z,23.50
2023-10-07T07:53:40.559Z,23.38
2023-10-07T07:58:43.903Z,24.25
2023-10-07T08:03:46.100Z,31.12
2023-10-07T08:08:48.301Z,26.50
2023-10-07T08:13:51.617Z,26.05
2023-10-07T08:18:53.549Z,24.48
2023-10-07T08:23:55.507Z,24.95
2023-10-07T08:28:58.879Z,26.00
2023-10-07T08:34:03.897Z,23.95
2023-10-07T08:39:06.258Z,24.23
2023-10-07T08:44:10.873Z,25.40
2023-10-07T08:49:14.726Z,25.15
2023-10-07T08:54:16.418Z,23.58
2023-10-07T08:59:20.589Z,24.75
2023-10-07T09:04:22.389Z,25.92
2023-10-07T09:09:34.729Z,30.08
2023-10-07T09:14:38.258Z,31.62
2023-10-07T09:19:40.103Z,28.80
2023-10-07T09:24:42.278Z,28.80
2023-10-07T09:29:45.395Z,27.65
2023-10-07T09:34:47.263Z,27.00
2023-10-07T09:39:49.356Z,27.27
2023-10-07T09:44:56.588Z,27.65
2023-10-07T09:49:58.344Z,27.27
2023-10-07T09:55:20.480Z,24.73
2023-10-07T10:00:31.350Z,26.17
2023-10-07T10:05:45.874Z,27.65
2023-10-07T10:10:48.120Z,25.03
2023-10-07T10:15:53.570Z,24.98
2023-10-07T10:21:02.769Z,23.08
2023-10-07T10:26:05.596Z,24.27
2023-10-07T10:31:18.431Z,24.17
2023-10-07T10:36:20.979Z,24.33
2023-10-07T10:41:28.979Z,23.92
2023-10-07T10:46:41.344Z,28.23
2023-10-07T10:51:47.077Z,27.13
2023-10-07T10:56:49.991Z,30.80
2023-10-07T11:01:53.399Z,23.98
2023-10-07T11:06:56.250Z,24.17
2023-10-07T11:11:58.050Z,25.77
2023-10-07T11:17:01.233Z,26.70
2023-10-07T11:22:03.077Z,32.25
2023-10-07T11:27:10.800Z,27.80
2023-10-07T11:32:14.335Z,23.48
2023-10-07T11:37:16.673Z,28.20
2023-10-07T11:42:19.494Z,28.80
2023-10-07T11:47:23.370Z,28.80
2023-10-07T11:52:25.144Z,20.75
2023-10-07T11:57:27.465Z,24.42
2023-10-07T12:02:30.723Z,27.65
2023-10-07T12:07:32.549Z,20.77
2023-10-07T12:12:34.391Z,23.42
2023-10-07T12:17:37.555Z,23.70
2023-10-07T12:22:39.615Z,22.23
2023-10-07T12:27:41.635Z,25.42
2023-10-07T12:32:45.093Z,25.35
2023-10-07T12:37:47.285Z,25.33
2023-10-07T12:42:50.362Z,23.75
2023-10-07T12:47:53.663Z,22.60
2023-10-07T12:52:57.704Z,18.23
2023-10-07T12:57:59.835Z,18.02
2023-10-07T13:03:04.051Z,22.00
2023-10-07T13:08:07.468Z,29.63
2023-10-07T13:13:12.585Z,22.85
2023-10-07T13:23:17.798Z,23.45
2023-10-07T13:28:19.579Z,23.08
2023-10-07T13:33:22.595Z,21.05
2023-10-07T13:38:24.430Z,24.45
2023-10-07T13:43:26.568Z,22.98
2023-10-07T13:48:34.425Z,22.65
2023-10-07T13:53:36.243Z,17.48
2023-10-07T13:58:38.060Z,20.40
2023-10-07T14:03:41.302Z,21.17
2023-10-07T14:08:43.609Z,22.17
2023-10-07T14:13:45.373Z,22.80
2023-10-07T14:18:48.493Z,22.00
2023-10-07T14:23:50.291Z,21.27
2023-10-07T14:28:52.027Z,23.50
2023-10-07T14:33:55.260Z,22.40
2023-10-07T14:38:57.110Z,28.08
2023-10-07T14:43:59.140Z,28.48
2023-10-07T14:49:02.319Z,22.58
2023-10-07T14:54:04.658Z,23.92
2023-10-07T14:59:06.558Z,22.70
2023-10-07T15:04:09.719Z,23.17
2023-10-07T15:09:11.665Z,23.02
2023-10-07T15:14:13.568Z,22.67
2023-10-07T15:19:16.771Z,22.80
2023-10-07T15:24:18.495Z,22.20
2023-10-07T15:29:20.347Z,21.73
2023-10-07T15:34:23.581Z,22.23
2023-10-07T15:39:25.446Z,20.05
2023-10-07T15:44:27.210Z,21.27
2023-10-07T15:49:30.331Z,21.20
2023-10-07T15:54:32.180Z,20.73
2023-10-07T15:59:33.989Z,23.50
2023-10-07T16:04:37.339Z,22.45
2023-10-07T16:09:39.203Z,24.30
2023-10-07T16:14:41.094Z,23.38
2023-10-07T16:19:44.338Z,23.52
2023-10-07T16:24:46.150Z,26.42
2023-10-07T16:29:50.624Z,26.62
2023-10-07T16:34:53.883Z,27.47
2023-10-07T16:39:55.739Z,26.25
2023-10-07T16:44:57.557Z,24.75
2023-10-07T16:50:00.868Z,23.42
2023-10-07T16:55:02.801Z,25.05
2023-10-07T17:00:06.455Z,27.25
2023-10-07T17:05:10.349Z,28.73
2023-10-07T17:10:12.415Z,29.95
2023-10-07T17:15:14.413Z,33.03
2023-10-07T17:20:17.728Z,34.33
2023-10-07T17:25:19.519Z,40.83
2023-10-07T17:30:22.057Z,45.42
2023-10-07T17:35:25.552Z,56.25
2023-10-07T17:40:27.535Z,57.33
2023-10-07T17:45:29.526Z,54.83
2023-10-07T17:50:33.048Z,58.92
2023-10-07T17:55:34.854Z,58.65
2023-10-07T18:00:36.650Z,59.15
2023-10-07T18:05:39.833Z,53.08
2023-10-07T18:10:41.616Z,55.63
2023-10-07T18:15:43.407Z,59.55
2023-10-07T18:20:53.081Z,51.78
2023-10-07T18:25:54.896Z,51.67
2023-10-07T18:30:59.468Z,50.10
2023-10-07T18:36:02.676Z,51.17
2023-10-07T18:41:04.469Z,48.33
2023-10-07T18:46:06.341Z,53.53
2023-10-07T18:51:10.573Z,52.17
2023-10-07T18:56:12.501Z,50.43
2023-10-07T19:01:15.619Z,50.97
2023-10-07T19:06:18.723Z,44.75
2023-10-07T19:11:20.722Z,49.63
2023-10-07T19:16:22.648Z,47.10
2023-10-07T19:21:25.736Z,43.20
2023-10-07T19:26:27.727Z,39.72
2023-10-07T19:31:29.709Z,40.97
2023-10-07T19:36:32.937Z,38.10
2023-10-07T19:41:34.756Z,38.30
2023-10-07T19:46:36.570Z,37.47
2023-10-07T19:51:39.779Z,36.47
2023-10-07T19:56:41.568Z,34.20
2023-10-07T20:01:43.396Z,36.40
2023-10-07T20:06:46.541Z,35.83
2023-10-07T20:11:48.642Z,31.90
2023-10-07T20:16:50.956Z,31.62
2023-10-07T20:21:54.367Z,29.15
2023-10-07T20:26:59.048Z,28.38
2023-10-07T20:32:00.947Z,27.35
2023-10-07T20:37:10.461Z,24.80
2023-10-07T20:42:12.425Z,24.52
2023-10-07T20:47:14.316Z,24.05
2023-10-07T20:52:17.552Z,21.35
2023-10-07T20:57:19.361Z,23.17
2023-10-07T21:02:21.251Z,20.85
2023-10-07T21:07:24.589Z,20.92
2023-10-07T21:12:26.555Z,20.92
2023-10-07T21:17:28.788Z,20.55
2023-10-07T21:22:32.100Z,22.05
2023-10-07T21:27:33.882Z,22.27
2023-10-07T21:32:35.830Z,20.98
2023-10-07T21:37:41.594Z,23.83
2023-10-07T21:42:43.470Z,23.95
2023-10-07T21:47:45.290Z,24.48
2023-10-07T21:52:49.461Z,24.87
2023-10-07T21:57:51.842Z,24.17
2023-10-07T22:02:54.952Z,26.50
2023-10-07T22:07:59.310Z,26.60
2023-10-07T22:13:01.318Z,25.37
2023-10-07T22:18:03.418Z,21.75
2023-10-07T22:23:07.085Z,24.05
2023-10-07T22:28:08.944Z,24.92
2023-10-07T22:33:10.697Z,23.25
2023-10-07T22:38:14.817Z,24.55
2023-10-07T22:43:17.002Z,22.33
2023-10-07T22:48:20.061Z,23.60
2023-10-07T22:53:23.815Z,23.00
2023-10-07T22:58:29.015Z,24.35
2023-10-07T23:08:35.074Z,21.98
2023-10-07T23:13:36.844Z,22.70
2023-10-07T23:18:38.739Z,24.12
2023-10-07T23:23:41.913Z,26.05
2023-10-07T23:28:43.709Z,27.92
2023-10-07T23:33:45.884Z,27.87
2023-10-07T23:38:49.312Z,29.42
2023-10-07T23:43:51.401Z,29.30
2023-10-07T23:48:53.145Z,28.70
2023-10-07T23:53:56.255Z,27.98
2023-10-07T23:58:58.006Z,24.35
